Last 24 Hours

Coyote Canyon

10 Minute Data | America/Los_Angeles
as of 5/9/26 11:01 AM PDT
Date & Time Temp (°F) Dew Pt (°F) RH (%) Wind Spd (mph) Wind Dir (°) Wind Gust (mph) Wind Gst Dir (°) Daily Max Temp (°F) Daily Min Temp (°F)
5/9/26 - 1100 78.6 25.7 14 15.6 NW | 307 21.8 WNW | 298 79.1 58.9
5/9/26 - 1050 78.2 25.5 14 15.1 WNW | 303 22.9 WNW | 297 79.0 58.9
5/9/26 - 1040 77.6 25.6 15 15.6 NW | 304 21.8 WNW | 288 78.5 58.9
5/9/26 - 1030 77.2 25.1 14 16.6 WNW | 298 22.9 NW | 309 77.6 58.9
5/9/26 - 1020 76.6 25.3 15 15.4 WNW | 293 21.0 W | 280 77.1 58.9
5/9/26 - 1010 76.2 25.2 15 17.2 WNW | 286 22.4 WNW | 299 77.0 58.9
5/9/26 - 1000 75.6 24.5 15 16.0 WNW | 296 22.2 WNW | 293 76.1 58.9
5/9/26 - 0950 74.7 24.5 15 17.7 WNW | 298 23.4 WNW | 298 75.3 58.9
5/9/26 - 0940 74.3 26.0 16 17.4 WNW | 296 22.1 WNW | 295 74.8 58.9
5/9/26 - 0930 73.6 25.7 17 18.5 WNW | 293 25.4 W | 281 74.0 58.9
5/9/26 - 0920 72.6 22.9 15 19.4 WNW | 294 26.3 WNW | 287 73.4 58.9
5/9/26 - 0910 72.0 24.3 17 19.8 WNW | 295 25.5 WNW | 284 72.5 58.9
5/9/26 - 0900 71.5 28.5 20 18.2 WNW | 297 25.6 WNW | 290 71.9 58.9
5/9/26 - 0850 70.6 27.2 20 20.1 WNW | 299 27.0 WNW | 294 70.8 58.9
5/9/26 - 0840 70.0 26.2 19 19.1 NW | 304 25.4 WNW | 298 70.5 58.9
5/9/26 - 0830 69.6 25.3 19 19.7 NW | 304 25.1 WNW | 300 69.9 58.9
5/9/26 - 0820 69.1 25.7 19 19.5 NW | 306 26.7 NW | 312 69.3 58.9
5/9/26 - 0810 68.6 25.3 19 19.7 NW | 304 25.6 WNW | 301 68.8 58.9
5/9/26 - 0800 68.2 24.9 19 18.9 NW | 304 25.3 WNW | 301 68.6 58.9
5/9/26 - 0750 67.6 26.1 21 20.6 NW | 308 26.2 WNW | 302 68.0 58.9
5/9/26 - 0740 66.9 29.5 25 19.8 NW | 308 24.4 NW | 306 67.4 58.9
5/9/26 - 0730 65.7 33.4 30 19.0 NW | 308 23.8 NW | 304 66.2 58.9
5/9/26 - 0720 65.0 34.7 32 16.9 NW | 307 21.1 NW | 307 65.2 58.9
5/9/26 - 0710 64.5 33.0 31 16.0 NW | 306 20.8 WNW | 298 64.6 58.9
5/9/26 - 0700 64.1 32.4 30 17.6 NW | 307 22.4 NW | 305 64.4 58.9
5/9/26 - 0650 63.3 32.5 31 17.6 NW | 308 23.0 NW | 310 63.5 58.9
5/9/26 - 0640 62.4 32.1 32 18.4 NW | 308 22.8 NW | 319 63.0 58.9
5/9/26 - 0630 62.1 31.8 32 17.9 NW | 308 24.5 NW | 306 62.7 58.9
5/9/26 - 0620 62.2 32.1 32 18.1 NW | 308 22.7 NW | 306 62.7 58.9
5/9/26 - 0610 62.3 32.8 33 18.0 NW | 308 22.9 NW | 307 62.7 58.9
5/9/26 - 0600 61.7 34.1 35 17.5 NW | 308 22.4 NW | 306 62.3 58.9
5/9/26 - 0550 61.4 35.0 37 17.0 NW | 307 20.7 NW | 305 62.3 58.9
5/9/26 - 0540 60.5 36.2 40 16.3 NW | 307 19.4 NW | 307 62.3 58.9
5/9/26 - 0530 59.5 41.1 50 16.8 WNW | 284 20.2 NW | 307 62.3 58.9
5/9/26 - 0520 59.2 44.2 57 16.1 WNW | 289 19.8 WNW | 287 62.3 58.9
5/9/26 - 0510 59.2 45.5 60 16.7 WNW | 301 20.8 WNW | 296 62.3 58.9
5/9/26 - 0500 59.4 47.6 65 16.2 NW | 304 20.0 WNW | 301 62.3 59.1
5/9/26 - 0450 59.7 48.6 67 16.8 NW | 306 21.5 NW | 306 62.3 59.1
5/9/26 - 0440 59.6 49.2 68 16.7 NW | 309 20.4 NW | 307 62.3 59.1
5/9/26 - 0430 59.4 49.4 69 15.1 NW | 306 20.0 NW | 311 62.3 59.1
5/9/26 - 0420 59.5 49.4 69 14.0 NW | 306 17.5 NW | 308 62.3 59.1
5/9/26 - 0410 59.8 49.7 69 16.0 NW | 308 19.4 NW | 306 62.3 59.5
5/9/26 - 0400 59.7 49.6 69 15.8 NW | 305 20.8 WNW | 295 62.3 59.5
5/9/26 - 0350 59.9 49.5 68 16.7 NW | 305 21.3 NW | 309 62.3 59.6
5/9/26 - 0340 59.8 49.5 69 16.4 NW | 306 21.0 WNW | 300 62.3 59.6
5/9/26 - 0330 60.0 49.3 68 16.2 NW | 306 19.7 NW | 306 62.3 59.8
5/9/26 - 0320 60.2 48.9 66 15.6 NW | 306 20.4 NW | 310 62.3 60.0
5/9/26 - 0310 60.3 48.4 65 15.6 NW | 307 20.3 NW | 312 62.3 60.0
5/9/26 - 0300 60.6 48.0 63 16.0 NW | 306 20.5 NW | 310 62.3 60.4
5/9/26 - 0250 61.0 47.8 62 17.4 NW | 307 21.6 NW | 307 62.3 60.4
5/9/26 - 0240 60.7 47.2 61 17.1 NW | 306 22.9 NW | 307 62.3 60.4
5/9/26 - 0230 61.0 47.2 60 15.9 NW | 304 20.9 WNW | 300 62.3 60.7
5/9/26 - 0220 61.4 47.2 60 15.3 NW | 304 19.9 NW | 306 62.3 60.7
5/9/26 - 0210 62.0 47.2 58 15.1 NW | 304 20.1 WNW | 294 62.3 60.7
5/9/26 - 0200 62.0 47.5 59 16.0 NW | 305 21.0 WNW | 293 62.2 60.7
5/9/26 - 0150 61.5 47.9 61 17.0 NW | 307 22.8 NW | 313 61.7 60.7
5/9/26 - 0140 61.2 47.9 62 17.9 NW | 308 22.9 NW | 310 61.4 60.7
5/9/26 - 0130 61.0 46.9 60 17.1 NW | 306 22.8 WNW | 297 61.3 60.7
5/9/26 - 0120 60.8 46.0 58 17.8 NW | 306 22.4 NW | 309 61.0 60.7
5/9/26 - 0110 60.8 45.5 57 18.3 NW | 307 24.0 NW | 306 60.9 60.7
5/9/26 - 0100 61.1 45.9 57 18.9 NW | 306 23.8 NW | 306 81.4 60.2
5/9/26 - 0050 60.8 45.9 58 17.8 NW | 304 23.6 NW | 305 81.4 60.2
5/9/26 - 0040 60.7 46.5 60 17.6 WNW | 302 24.6 WNW | 292 81.4 60.2
5/9/26 - 0030 60.4 46.7 60 18.6 WNW | 302 25.1 WNW | 303 81.4 60.2
5/9/26 - 0020 60.3 47.2 62 18.1 WNW | 301 22.5 WNW | 299 81.4 60.2
5/9/26 - 0010 60.4 47.3 62 19.0 WNW | 297 23.1 WNW | 292 81.4 60.2
5/9/26 - 0000 60.5 47.1 61 18.3 WNW | 297 22.4 WNW | 294 81.4 60.4
5/8/26 - 2350 60.9 46.2 58 18.4 WNW | 294 22.3 WNW | 293 81.4 60.7
5/8/26 - 2340 61.2 45.4 56 18.2 WNW | 297 22.5 WNW | 300 81.4 60.8
5/8/26 - 2330 61.0 44.5 54 18.0 WNW | 298 23.2 WNW | 296 81.4 60.8
5/8/26 - 2320 61.3 43.8 52 17.6 WNW | 294 21.5 WNW | 291 81.4 60.8
5/8/26 - 2310 61.4 43.6 52 17.3 WNW | 296 21.5 NW | 304 81.4 60.8
5/8/26 - 2300 61.5 43.7 52 17.6 WNW | 299 22.3 NW | 306 81.4 60.8
5/8/26 - 2250 61.4 44.4 53 17.7 WNW | 299 22.7 WNW | 302 81.4 60.8
5/8/26 - 2240 61.5 45.0 55 17.7 WNW | 298 21.1 WNW | 294 81.4 60.8
5/8/26 - 2230 61.6 45.4 55 17.6 WNW | 296 21.8 WNW | 288 81.4 60.8
5/8/26 - 2220 61.6 45.9 56 18.1 WNW | 299 22.7 WNW | 302 81.4 60.8
5/8/26 - 2210 61.7 46.2 57 17.9 WNW | 296 22.6 WNW | 300 81.4 60.8
5/8/26 - 2200 61.9 46.2 56 17.1 WNW | 299 21.2 WNW | 293 81.4 60.8
5/8/26 - 2150 61.8 45.5 55 17.2 WNW | 302 21.7 NW | 305 81.4 60.8
5/8/26 - 2140 62.0 45.0 54 16.8 WNW | 302 22.9 WNW | 286 81.4 60.8
5/8/26 - 2130 62.3 44.3 52 17.3 WNW | 300 22.8 WNW | 294 81.4 60.8
5/8/26 - 2120 62.3 44.0 51 16.4 NW | 305 23.1 WNW | 298 81.4 60.8
5/8/26 - 2110 62.4 43.6 50 15.5 WNW | 298 21.6 WNW | 302 81.4 60.8
5/8/26 - 2100 62.8 43.6 49 15.7 WSW | 244 20.7 WNW | 299 81.4 60.8
5/8/26 - 2050 63.0 43.3 48 15.2 SSE | 158 20.6 NW | 308 81.4 60.8
5/8/26 - 2040 63.5 43.5 48 14.5 S | 174 18.8 SSE | 162 81.4 60.8
5/8/26 - 2030 64.0 43.4 47 13.9 SSE | 165 17.4 SSE | 164 81.4 60.8
5/8/26 - 2020 65.0 42.6 44 14.5 SSE | 167 18.8 S | 170 81.4 60.8
5/8/26 - 2010 65.4 40.5 40 13.5 SSE | 164 17.5 SSE | 163 81.4 60.8
5/8/26 - 2000 66.4 38.9 36 13.3 SSE | 159 16.8 SSE | 154 81.4 60.8
5/8/26 - 1950 67.5 39.6 36 14.3 SSE | 156 19.7 SSE | 160 81.4 60.8
5/8/26 - 1940 68.6 39.3 34 14.3 SSE | 157 19.6 SSE | 160 81.4 60.8
5/8/26 - 1930 69.6 38.0 31 15.0 SSE | 158 19.6 SSE | 156 81.4 60.8
5/8/26 - 1920 70.8 37.4 30 16.3 SSE | 156 22.8 SSE | 149 81.4 60.8
5/8/26 - 1910 71.7 37.3 28 16.2 SSE | 152 22.4 SSE | 158 81.4 60.8
5/8/26 - 1900 72.5 40.1 31 15.6 SSE | 149 23.2 SSE | 152 81.4 60.8
5/8/26 - 1850 73.2 40.5 31 14.5 SE | 142 20.0 SE | 143 81.4 60.8
5/8/26 - 1840 73.9 37.7 27 16.6 SE | 133 24.6 SE | 128 81.4 60.8
5/8/26 - 1830 74.6 37.5 26 15.9 SE | 124 25.4 ESE | 107 81.4 60.8
5/8/26 - 1820 74.7 37.8 26 17.8 E | 95 23.2 ESE | 122 81.4 60.8
5/8/26 - 1810 75.0 36.8 25 19.7 ENE | 63 27.2 W | 266 81.4 60.8
5/8/26 - 1800 75.6 39.1 27 16.6 E | 83 27.2 E | 79 81.4 60.8
5/8/26 - 1750 75.5 39.7 27 18.8 WSW | 253 25.8 W | 267 81.4 60.8
5/8/26 - 1740 75.9 38.2 26 20.0 W | 260 25.7 WSW | 251 81.4 60.8
5/8/26 - 1730 76.2 38.0 25 19.3 W | 265 27.2 W | 275 81.4 60.8
5/8/26 - 1720 76.8 35.8 23 19.5 WSW | 258 26.1 W | 265 81.4 60.8
5/8/26 - 1710 77.4 34.4 21 18.0 WSW | 256 27.1 W | 268 81.4 60.8
5/8/26 - 1700 77.1 34.6 21 19.7 W | 271 28.1 W | 273 81.4 60.8
5/8/26 - 1650 77.8 35.9 22 17.7 W | 274 25.3 W | 268 81.4 60.8
5/8/26 - 1640 77.6 35.2 22 18.2 W | 277 26.4 W | 278 81.4 60.8
5/8/26 - 1630 78.0 34.5 21 17.8 W | 273 26.3 W | 266 81.4 60.8
5/8/26 - 1620 78.3 33.7 20 17.2 W | 280 25.5 W | 272 81.4 60.8
5/8/26 - 1610 78.4 33.5 20 17.4 W | 268 24.6 W | 277 81.4 60.8
5/8/26 - 1600 78.7 34.5 20 17.6 W | 262 26.8 WNW | 290 81.4 60.8
5/8/26 - 1550 79.4 35.7 21 17.5 W | 276 26.2 W | 268 81.4 60.8
5/8/26 - 1540 79.2 35.8 21 18.1 W | 278 28.3 WNW | 282 81.4 60.8
5/8/26 - 1530 79.1 35.0 20 16.5 W | 260 26.0 W | 263 81.4 60.8
5/8/26 - 1520 79.1 34.6 20 17.6 W | 279 23.9 WNW | 287 81.4 60.8
5/8/26 - 1510 79.4 36.0 21 17.9 W | 276 27.2 WSW | 257 81.4 60.8
5/8/26 - 1500 79.3 37.4 22 16.7 W | 268 24.5 W | 278 81.4 60.8
5/8/26 - 1450 80.2 36.1 20 14.9 W | 268 22.6 WSW | 251 81.4 60.8
5/8/26 - 1440 80.3 35.9 20 14.9 W | 265 26.4 W | 263 81.4 60.8
5/8/26 - 1430 78.9 34.8 20 16.9 W | 264 24.9 W | 265 80.7 60.8
5/8/26 - 1420 79.7 37.6 22 17.6 W | 270 25.4 W | 261 80.7 60.8
5/8/26 - 1410 79.0 35.8 21 14.9 WSW | 249 25.7 WSW | 245 80.4 60.8
5/8/26 - 1400 78.8 35.7 21 16.5 W | 268 27.2 WSW | 249 80.4 60.8
5/8/26 - 1350 78.8 35.5 21 16.1 W | 277 28.8 W | 261 80.4 60.8
5/8/26 - 1340 79.1 36.6 22 17.9 W | 280 27.2 W | 274 80.4 60.8
5/8/26 - 1330 78.4 34.3 20 17.4 W | 281 25.3 W | 277 80.1 60.8
5/8/26 - 1320 78.8 33.0 19 18.0 W | 281 26.8 W | 279 80.1 60.8
5/8/26 - 1310 78.4 32.5 19 18.4 WNW | 286 28.1 WNW | 286 80.1 60.8
5/8/26 - 1300 78.6 32.4 19 18.1 WNW | 282 29.3 W | 274 80.1 60.8
5/8/26 - 1250 78.8 29.9 17 19.0 W | 274 27.7 WNW | 284 80.1 60.8
5/8/26 - 1240 78.4 30.5 17 17.9 W | 274 26.9 WSW | 258 80.0 60.8
5/8/26 - 1230 78.5 28.6 16 18.9 WNW | 285 28.4 W | 273 80.0 60.8
5/8/26 - 1220 79.0 28.4 16 17.7 W | 276 26.5 W | 269 80.0 60.8
5/8/26 - 1210 79.5 28.6 15 17.0 W | 272 24.6 WSW | 257 80.0 60.8
5/8/26 - 1200 78.5 28.7 16 17.2 W | 269 28.2 NW | 305 79.3 60.8
5/8/26 - 1150 78.4 26.9 15 18.4 W | 274 27.9 W | 277 79.2 60.8
5/8/26 - 1140 78.6 28.4 16 18.3 W | 261 28.6 W | 279 79.2 60.8
5/8/26 - 1130 78.2 29.0 16 19.2 W | 264 29.3 W | 269 79.2 60.8
5/8/26 - 1120 78.3 29.5 17 17.0 W | 262 25.6 W | 268 79.0 60.8
5/8/26 - 1110 77.6 32.7 19 17.4 W | 273 27.4 WSW | 240 78.6 60.8
5/8/26 - 1100 77.8 32.0 19 17.3 W | 263 25.9 W | 266 78.6 60.8
Max 80.3 49.7 69 20.6 - 29.3 - 81.4 60.8
Avg 68.9 37.8 37 17.2 - 23.5 - - -
Min 59.2 22.9 14 13.3 - 16.8 - 60.9 58.9